NCAR-RAP Real-Time Weather Data

Output produced by METARs form (08 May 2021  01:25 UTC)
found at http://weather.rap.ucar.edu/surface/
 
KMSS 080053Z AUTO 32005KT 10SM OVC090 10/01 A2992 RMK AO2 SLP134 T01000006
KMSS 072353Z AUTO 31006KT 10SM OVC085 11/00 A2992 RMK AO2 SLP133 T01110000 10139 20111 50001
KMSS 072253Z AUTO 32008KT 10SM BKN060 BKN080 12/M01 A2992 RMK AO2 SLP134 T01221011
KMSS 072153Z AUTO 00000KT 10SM BKN070 OVC090 13/M02 A2992 RMK AO2 SLP133 T01281017
KMSS 072053Z AUTO 06003KT 10SM OVC060 13/M02 A2991 RMK AO2 SLP132 T01281017 55008
KMSS 071953Z AUTO 32009KT 10SM SCT070 BKN090 14/M02 A2991 RMK AO2 SLP131 T01391022
KMSS 071853Z AUTO 00000KT 10SM BKN065 14/M02 A2993 RMK AO2 SLP137 T01391017
KMSS 071753Z AUTO VRB05KT 10SM BKN070 BKN085 13/M02 A2994 RMK AO2 SLP140 T01331022 10139 20061 57014
KMSS 071653Z AUTO 28004KT 10SM BKN070 BKN085 13/M03 A2995 RMK AO2 SLP144 T01281028
KMSS 071553Z AUTO 20003KT 10SM CLR 13/M03 A2997 RMK AO2 SLP150 T01281028
KMSS 071453Z AUTO VRB03KT 10SM CLR 13/M02 A2998 RMK AO2 SLP153 T01331022 56005
KMSS 071353Z AUTO 00000KT 10SM CLR 11/M02 A2998 RMK AO2 SLP154 T01111022
KMSS 071253Z AUTO 00000KT 10SM SCT110 09/M03 A2998 RMK AO2 SLP156 T00891028
KMSS 071153Z AUTO 00000KT 10SM BKN085 OVC120 06/M01 A2999 RMK AO2 SLP159 T00611006 10061 20011 53009
KMSS 071053Z AUTO 06003KT 10SM SCT075 BKN090 BKN120 04/M01 A2998 RMK AO2 SLP156 T00391006
KMSS 070953Z AUTO 00000KT 10SM FEW120 03/M01 A2997 RMK AO2 SLP152 T00281006